ROMMA est une association bénévole à but non lucratif. Votre soutien est indispensable : ADHERER à ROMMA ou FAIRE un DON

Chamrousse - (38, Isère)

Massif de Belledonne (1800 m)   Longitude: 05° 52' 28" E   Latitude: 45° 06' 28" N Station partenaire n°3
 

Détail journalier du     <<     >>

Température Precipitation Humidité Pression Vent Dir Rafale Dir. rafale
Heure (°C) (mm) (%) (hPa) (km/h) (km/h)
01:00 14.5040100223ESE55ESE
02:00 12.7050100215SE35SE
03:00 13.4041100226SE68ENE
04:00 10.8069100415SSO42ENE
05:00 11.60.258100216S52SE
06:00 9.6072100316S42S
07:00 12.1051100315SSO61SE
08:00 11.7050100419SSE55SSO
09:00 9.9081100515S53ESE
10:00 11.7046100616S50SE
11:00 11.9051100618SE50SE
12:00 12.3069100714S40ESE
13:00 13.107110069SSO34SSO
14:00 13.205510088SO40S
15:00 12.10.651100825SE71SE
16:00 12.5073100910SSO35SSE
17:00 11.108010086O16ONO
18:00 11.2070100910NO21ONO
19:00 10.9085100710NO23NO
20:00 9.9092100811NNO32NNE
21:00 9.3091100814NNO32N
22:00 9.3091100811N27NNO
23:00 9.109210083E16NE
minuit 8.701001008105ENE69NE

Graphique du 28-05-2008

 

Serveur OMMA